Time;durP1;ratioP1;P1;durP2;ratioP2;P2;SDS_P1;SDS_P2;PMS_P1;PMS_P2;Temp;Humidity;BMP_temperature;BMP_pressure;BME280_temperature;BME280_humidity;BME280_pressure;Samples;Min_cycle;Max_cycle;Signal;HPM_P1;HPM_P2
2023/10/13 00:01:43;;;;;;;3.33;2.30;;;20.70;99.90;;;;;;5096617;28;20663;-86
2023/10/13 00:04:09;;;;;;;2.63;2.33;;;20.70;99.90;;;;;;5113546;28;20167;-87
2023/10/13 00:06:34;;;;;;;2.67;2.40;;;20.70;99.90;;;;;;5115376;28;20169;-86
2023/10/13 00:09:00;;;;;;;3.07;2.60;;;20.70;99.90;;;;;;5113349;28;20220;-86
2023/10/13 00:11:26;;;;;;;2.43;2.23;;;20.70;99.90;;;;;;5113519;28;20308;-87
2023/10/13 00:13:54;;;;;;;2.90;2.60;;;20.70;99.90;;;;;;5113848;28;20226;-87
2023/10/13 00:16:21;;;;;;;2.60;2.40;;;20.70;99.90;;;;;;5104926;28;20170;-87
2023/10/13 00:18:48;;;;;;;2.93;2.30;;;20.70;99.90;;;;;;5097673;28;20198;-88
2023/10/13 00:21:30;;;;;;;2.47;2.20;;;20.70;99.90;;;;;;5114194;28;20170;-88
2023/10/13 00:23:57;;;;;;;3.43;2.43;;;20.70;99.90;;;;;;5096323;28;20173;-88
2023/10/13 00:26:29;;;;;;;3.17;2.60;;;20.70;99.90;;;;;;5096529;28;20173;-88
2023/10/13 00:29:08;;;;;;;2.63;2.20;;;20.70;99.90;;;;;;5096286;28;20410;-88
2023/10/13 00:31:40;;;;;;;3.00;2.50;;;20.70;99.90;;;;;;5096261;28;20197;-88
2023/10/13 00:34:15;;;;;;;2.60;2.40;;;20.70;99.90;;;;;;5097046;28;20522;-88
2023/10/13 00:39:28;;;;;;;2.50;2.30;;;20.70;99.90;;;;;;5094723;28;20463;-88
2023/10/13 00:42:07;;;;;;;3.03;2.40;;;20.70;99.90;;;;;;5092538;28;20177;-88
2023/10/13 00:44:44;;;;;;;3.57;2.20;;;20.70;99.90;;;;;;5113530;28;20209;-88
2023/10/13 00:47:16;;;;;;;2.50;2.27;;;20.70;99.90;;;;;;5098593;28;20288;-88
2023/10/13 00:49:47;;;;;;;4.03;2.30;;;20.70;99.90;;;;;;5099188;28;20537;-88
2023/10/13 00:52:15;;;;;;;3.27;2.30;;;20.70;99.90;;;;;;5116452;28;20212;-88
2023/10/13 00:54:46;;;;;;;2.70;2.50;;;20.70;99.90;;;;;;5098615;28;20179;-88
2023/10/13 00:57:26;;;;;;;2.87;2.00;;;20.70;99.90;;;;;;5098993;28;20625;-88
2023/10/13 00:59:53;;;;;;;2.73;2.20;;;20.70;99.90;;;;;;5117184;28;20204;-88
2023/10/13 01:05:05;;;;;;;4.90;2.37;;;20.70;99.90;;;;;;5116538;28;20513;-88
2023/10/13 01:07:31;;;;;;;3.17;2.13;;;20.70;99.90;;;;;;5097833;28;20194;-88
2023/10/13 01:09:56;;;;;;;2.40;2.20;;;20.70;99.90;;;;;;5116165;28;20468;-88
2023/10/13 01:12:25;;;;;;;2.93;2.17;;;20.70;99.90;;;;;;5112707;28;20165;-88
2023/10/13 01:14:51;;;;;;;2.80;2.40;;;20.70;99.90;;;;;;5116172;28;20278;-88
2023/10/13 01:17:18;;;;;;;2.70;2.10;;;20.70;99.90;;;;;;5097678;28;20217;-88
2023/10/13 01:19:45;;;;;;;2.60;2.10;;;20.70;99.90;;;;;;5097217;28;20451;-88
2023/10/13 01:22:11;;;;;;;3.00;2.27;;;20.70;99.90;;;;;;5112869;28;20433;-88
2023/10/13 01:24:37;;;;;;;2.77;2.27;;;20.70;99.90;;;;;;5098530;28;20194;-88
2023/10/13 01:27:25;;;;;;;2.87;2.57;;;20.70;99.90;;;;;;5114836;28;20261;-88
2023/10/13 01:29:55;;;;;;;2.43;2.20;;;20.70;99.90;;;;;;5069794;28;20177;-88
2023/10/13 01:32:23;;;;;;;2.53;2.30;;;20.70;99.90;;;;;;5093997;28;20606;-88
2023/10/13 01:34:49;;;;;;;2.90;2.30;;;20.70;99.90;;;;;;5092884;28;20189;-88
2023/10/13 01:37:16;;;;;;;2.33;1.93;;;20.70;99.90;;;;;;5091973;28;20232;-88
2023/10/13 01:39:42;;;;;;;2.37;2.17;;;20.70;99.90;;;;;;5091857;28;20175;-88
2023/10/13 01:42:08;;;;;;;3.13;2.20;;;20.70;99.90;;;;;;5094436;28;20219;-88
2023/10/13 01:44:34;;;;;;;3.10;2.20;;;20.70;99.90;;;;;;5111680;28;20462;-88
2023/10/13 01:47:06;;;;;;;2.60;2.40;;;20.70;99.90;;;;;;5111000;28;20220;-88
2023/10/13 01:49:50;;;;;;;2.80;2.10;;;20.70;99.90;;;;;;5108862;28;20205;-88
2023/10/13 01:52:16;;;;;;;3.77;2.30;;;20.70;99.90;;;;;;5096113;28;20231;-88
2023/10/13 01:54:45;;;;;;;2.73;2.17;;;20.70;99.90;;;;;;5113216;28;20515;-88
2023/10/13 01:57:17;;;;;;;2.20;2.00;;;20.70;99.90;;;;;;5096633;28;20203;-88
2023/10/13 01:59:47;;;;;;;2.47;2.20;;;20.70;99.90;;;;;;5095919;28;20233;-88
2023/10/13 02:02:14;;;;;;;3.47;2.20;;;20.70;99.90;;;;;;5081871;28;20243;-88
2023/10/13 02:04:55;;;;;;;2.40;2.20;;;20.70;99.90;;;;;;5098022;28;20160;-88
2023/10/13 02:07:20;;;;;;;2.20;1.80;;;20.70;99.90;;;;;;5097957;28;20185;-88
2023/10/13 02:09:47;;;;;;;3.07;2.30;;;20.70;99.90;;;;;;5093982;28;20174;-88
2023/10/13 02:12:15;;;;;;;2.20;2.00;;;20.70;99.90;;;;;;5117757;28;20669;-88
2023/10/13 02:14:42;;;;;;;2.23;2.00;;;20.70;99.90;;;;;;5117915;28;20189;-89
2023/10/13 02:17:13;;;;;;;3.63;2.00;;;20.70;99.90;;;;;;5117898;28;20197;-89
2023/10/13 02:19:43;;;;;;;3.30;2.20;;;20.70;99.90;;;;;;5118154;28;20178;-89
2023/10/13 02:22:31;;;;;;;2.07;1.87;;;20.70;99.90;;;;;;5100745;28;20564;-89
2023/10/13 02:25:01;;;;;;;3.00;2.00;;;20.70;99.90;;;;;;5114752;28;20180;-89
2023/10/13 02:27:27;;;;;;;2.47;2.00;;;20.70;99.90;;;;;;5100966;28;20266;-89
2023/10/13 02:29:58;;;;;;;2.90;2.07;;;20.60;99.90;;;;;;5100404;28;20193;-89
2023/10/13 02:32:26;;;;;;;2.40;2.20;;;20.70;99.90;;;;;;5117119;28;20265;-89
2023/10/13 02:34:52;;;;;;;2.73;2.20;;;20.70;99.90;;;;;;5117414;28;20185;-89
2023/10/13 02:37:19;;;;;;;3.13;2.20;;;20.70;99.90;;;;;;5117391;28;20206;-89
2023/10/13 02:39:45;;;;;;;2.30;2.10;;;20.70;99.90;;;;;;5116887;28;20209;-89
2023/10/13 02:42:23;;;;;;;2.73;2.00;;;20.70;99.90;;;;;;5117421;28;20220;-90
2023/10/13 02:44:49;;;;;;;2.37;2.00;;;20.70;99.90;;;;;;5100208;28;20202;-88
2023/10/13 02:47:15;;;;;;;2.70;2.20;;;20.60;99.90;;;;;;5100059;28;20707;-88
2023/10/13 02:49:45;;;;;;;2.43;2.10;;;20.60;99.90;;;;;;5117235;28;20619;-88
2023/10/13 02:52:12;;;;;;;3.77;2.30;;;20.60;99.90;;;;;;5100551;28;20189;-88
2023/10/13 02:54:50;;;;;;;2.30;2.10;;;20.60;99.90;;;;;;5117655;28;20273;-88
2023/10/13 02:57:17;;;;;;;2.87;2.13;;;20.70;99.90;;;;;;5100567;28;20258;-88
2023/10/13 02:59:55;;;;;;;2.13;1.93;;;20.70;99.90;;;;;;5100865;28;20162;-88
2023/10/13 03:02:25;;;;;;;2.93;2.20;;;20.60;99.90;;;;;;5080813;28;20166;-88
2023/10/13 03:04:59;;;;;;;3.60;2.20;;;20.60;99.90;;;;;;5097673;28;20175;-88
2023/10/13 03:07:29;;;;;;;2.10;1.83;;;20.60;99.90;;;;;;5079998;28;20175;-87
2023/10/13 03:10:10;;;;;;;2.60;2.10;;;20.60;99.90;;;;;;5114359;28;20168;-89
2023/10/13 03:12:37;;;;;;;2.23;2.03;;;20.60;99.90;;;;;;5082969;28;20260;-89
2023/10/13 03:15:15;;;;;;;2.30;2.10;;;20.60;99.90;;;;;;5099740;28;20203;-89
2023/10/13 03:17:43;;;;;;;2.17;1.97;;;20.60;99.90;;;;;;5099450;28;20201;-88
2023/10/13 03:20:22;;;;;;;2.20;2.00;;;20.60;99.90;;;;;;5100668;28;20183;-88
2023/10/13 03:22:48;;;;;;;3.00;1.97;;;20.60;99.90;;;;;;5103973;28;20541;-90
2023/10/13 03:25:36;;;;;;;2.63;2.10;;;20.60;99.90;;;;;;5120645;28;20171;-90
2023/10/13 03:28:04;;;;;;;2.50;2.30;;;20.60;99.90;;;;;;5103288;28;20223;-90
2023/10/13 03:33:27;;;;;;;2.10;1.83;;;20.60;99.90;;;;;;5120227;28;20256;-89
2023/10/13 03:35:54;;;;;;;2.43;2.00;;;20.60;99.90;;;;;;5120101;28;20639;-88
2023/10/13 03:38:20;;;;;;;2.30;2.10;;;20.60;99.90;;;;;;5120472;28;20245;-88
2023/10/13 03:40:56;;;;;;;2.20;2.00;;;20.60;99.90;;;;;;5102678;28;20174;-88
2023/10/13 03:43:29;;;;;;;2.30;2.10;;;20.60;99.90;;;;;;5120491;28;20170;-89
2023/10/13 03:46:07;;;;;;;2.30;2.10;;;20.60;99.90;;;;;;5119683;28;20180;-88
2023/10/13 03:48:40;;;;;;;2.47;1.70;;;20.60;99.90;;;;;;5104975;28;20173;-88
2023/10/13 03:51:15;;;;;;;2.00;1.80;;;20.60;99.90;;;;;;5101555;28;20469;-89
2023/10/13 03:53:54;;;;;;;2.90;2.17;;;20.60;99.90;;;;;;5118321;28;20170;-89
2023/10/13 03:56:28;;;;;;;2.30;2.10;;;20.60;99.90;;;;;;5119820;28;20178;-89
2023/10/13 04:04:14;;;;;;;2.20;2.00;;;20.60;99.90;;;;;;5119724;28;20470;-89
2023/10/13 04:17:26;;;;;;;1.90;1.70;;;20.60;99.90;;;;;;5117009;28;20201;-88
2023/10/13 04:25:35;;;;;;;2.00;1.80;;;20.60;99.90;;;;;;5098021;28;20552;-88
2023/10/13 04:36:21;;;;;;;2.30;2.10;;;20.60;99.90;;;;;;5117045;28;20201;-88
2023/10/13 04:41:41;;;;;;;1.97;1.87;;;20.60;99.90;;;;;;5117827;28;20574;-88
2023/10/13 05:06:13;;;;;;;4.77;2.10;;;20.60;99.90;;;;;;5119421;28;20192;-88
2023/10/13 06:31:21;;;;;;;2.20;2.00;;;20.60;99.90;;;;;;5114653;28;20177;-88
2023/10/13 06:33:47;;;;;;;3.73;2.00;;;20.60;99.90;;;;;;5096180;28;20258;-88
2023/10/13 06:36:13;;;;;;;2.20;2.00;;;20.60;99.90;;;;;;5097108;28;20580;-87
2023/10/13 06:38:41;;;;;;;3.20;2.13;;;20.60;99.90;;;;;;5105246;28;20194;-88
2023/10/13 06:41:07;;;;;;;2.20;1.97;;;20.60;99.90;;;;;;5114334;28;20555;-88
2023/10/13 06:43:45;;;;;;;1.87;1.77;;;20.60;99.90;;;;;;5097135;28;20570;-88
2023/10/13 06:46:45;;;;;;;2.10;1.90;;;20.60;99.90;;;;;;5097504;28;20181;-88
2023/10/13 06:49:13;;;;;;;2.80;2.10;;;20.60;99.90;;;;;;5103641;28;20172;-87
2023/10/13 06:52:06;;;;;;;2.33;2.10;;;20.60;99.90;;;;;;5118156;28;20171;-88
2023/10/13 06:54:35;;;;;;;2.23;2.00;;;20.60;99.90;;;;;;5093542;28;20262;-88
2023/10/13 06:57:06;;;;;;;3.03;2.20;;;20.60;99.90;;;;;;5094073;28;20171;-88
2023/10/13 06:59:39;;;;;;;2.33;1.97;;;20.60;99.90;;;;;;5117226;28;20170;-88
2023/10/13 07:02:21;;;;;;;2.33;2.03;;;20.60;99.90;;;;;;5115775;28;20174;-87
2023/10/13 07:04:48;;;;;;;2.63;2.10;;;20.60;99.90;;;;;;5099337;28;20166;-86
2023/10/13 07:07:57;;;;;;;2.30;2.10;;;20.60;99.90;;;;;;5118509;28;20177;-86
2023/10/13 07:10:29;;;;;;;2.57;1.90;;;20.60;99.90;;;;;;5099211;28;20204;-86
2023/10/13 07:13:00;;;;;;;2.67;2.07;;;20.70;99.90;;;;;;5118096;28;20514;-87
2023/10/13 07:15:35;;;;;;;2.07;1.87;;;20.70;99.90;;;;;;5100247;28;20628;-86
2023/10/13 07:18:05;;;;;;;2.70;2.10;;;20.70;99.90;;;;;;5094550;28;20215;-86
2023/10/13 07:20:34;;;;;;;2.83;1.90;;;20.70;99.90;;;;;;5095283;28;20216;-87
2023/10/13 07:23:03;;;;;;;2.67;2.20;;;20.70;99.90;;;;;;5111584;28;20198;-86
2023/10/13 07:26:02;;;;;;;2.87;2.20;;;20.70;99.90;;;;;;5111228;28;20169;-86
2023/10/13 07:28:43;;;;;;;2.13;1.90;;;20.70;99.90;;;;;;5069506;28;20709;-86
2023/10/13 07:31:20;;;;;;;2.23;2.03;;;20.70;99.90;;;;;;5092813;28;20178;-86
2023/10/13 07:33:47;;;;;;;3.37;2.00;;;20.70;99.90;;;;;;5093803;28;20182;-86
2023/10/13 07:36:17;;;;;;;2.23;1.97;;;20.70;99.90;;;;;;5110957;28;20441;-86
2023/10/13 07:38:48;;;;;;;2.20;2.00;;;20.70;99.90;;;;;;5092786;28;20211;-86
2023/10/13 07:41:15;;;;;;;3.80;2.10;;;20.70;99.90;;;;;;5092590;28;20166;-86
2023/10/13 07:43:45;;;;;;;3.13;2.30;;;20.70;99.90;;;;;;5110227;28;20280;-87
2023/10/13 07:46:12;;;;;;;4.53;2.10;;;20.70;99.90;;;;;;5091976;28;20178;-87
2023/10/13 07:48:40;;;;;;;2.63;2.23;;;20.70;99.90;;;;;;5092020;28;20623;-87
2023/10/13 07:51:13;;;;;;;3.37;2.27;;;20.70;99.90;;;;;;5108469;28;20281;-87
2023/10/13 07:53:43;;;;;;;4.33;2.20;;;20.80;99.90;;;;;;5090271;28;20348;-87
2023/10/13 07:56:11;;;;;;;4.73;2.40;;;20.80;99.90;;;;;;5089026;28;20261;-87
2023/10/13 07:58:52;;;;;;;14.80;2.43;;;20.80;99.90;;;;;;5087563;28;20198;-88
2023/10/13 08:01:18;;;;;;;3.87;2.30;;;20.80;99.90;;;;;;5106963;28;20169;-87
2023/10/13 08:03:46;;;;;;;3.47;2.13;;;20.80;99.90;;;;;;5088815;28;20227;-87
2023/10/13 08:08:43;;;;;;;2.80;2.30;;;20.80;99.90;;;;;;5103292;28;20174;-87
2023/10/13 08:13:59;;;;;;;4.93;2.47;;;20.80;99.90;;;;;;5105074;28;20176;-87
2023/10/13 08:19:18;;;;;;;6.73;2.50;;;20.90;99.90;;;;;;5103686;28;20241;-87
2023/10/13 08:22:23;;;;;;;3.40;2.43;;;20.80;99.90;;;;;;5087759;28;20167;-87
2023/10/13 08:50:52;;;;;;;5.67;2.73;;;21.10;99.90;;;;;;5089916;28;20173;-87
2023/10/13 09:09:28;;;;;;;5.00;3.10;;;21.40;99.90;;;;;;5106203;28;20406;-89
2023/10/13 09:12:10;;;;;;;8.27;3.53;;;21.40;99.90;;;;;;5107844;28;20215;-89
2023/10/13 09:14:56;;;;;;;6.50;3.03;;;21.40;99.90;;;;;;5089425;28;20634;-89
2023/10/13 09:25:36;;;;;;;8.47;4.27;;;21.50;99.90;;;;;;5106623;28;20300;-87
2023/10/13 09:28:17;;;;;;;5.60;3.47;;;21.50;99.90;;;;;;5087850;28;20426;-89
2023/10/13 09:30:52;;;;;;;8.93;3.30;;;21.60;99.90;;;;;;5105841;28;20260;-89
2023/10/13 09:33:32;;;;;;;6.17;3.30;;;21.60;99.90;;;;;;5086850;28;20346;-89
2023/10/13 09:35:59;;;;;;;7.97;3.10;;;21.60;99.90;;;;;;5087512;28;20233;-89
2023/10/13 09:38:27;;;;;;;9.37;3.40;;;21.60;99.90;;;;;;5086663;28;20262;-89
2023/10/13 09:40:57;;;;;;;8.23;3.60;;;21.70;99.90;;;;;;5104684;28;20173;-87
2023/10/13 09:43:25;;;;;;;9.97;3.73;;;21.70;99.90;;;;;;5100831;28;20185;-87
2023/10/13 09:46:15;;;;;;;8.20;3.40;;;21.70;99.90;;;;;;5084949;28;20266;-88
2023/10/13 09:48:46;;;;;;;6.63;3.40;;;21.70;99.90;;;;;;5086440;28;20181;-88
2023/10/13 09:51:19;;;;;;;8.07;3.53;;;21.80;99.90;;;;;;5084358;28;20174;-87
2023/10/13 09:53:57;;;;;;;8.70;3.33;;;21.80;99.90;;;;;;5102081;28;20488;-87
2023/10/13 09:56:31;;;;;;;7.00;3.53;;;21.80;99.90;;;;;;5072596;28;20721;-88
2023/10/13 09:59:08;;;;;;;6.33;3.20;;;21.80;99.90;;;;;;5104062;28;20532;-87
2023/10/13 10:01:40;;;;;;;6.67;3.33;;;21.80;99.90;;;;;;5086553;28;20166;-87
2023/10/13 10:04:19;;;;;;;7.90;3.23;;;21.90;99.90;;;;;;5103857;28;20281;-87
2023/10/13 10:07:01;;;;;;;5.37;3.40;;;21.90;99.90;;;;;;5067285;28;20188;-87
2023/10/13 10:09:34;;;;;;;6.03;3.53;;;21.90;99.90;;;;;;5084714;28;20170;-88
2023/10/13 10:12:21;;;;;;;6.17;3.27;;;21.90;99.90;;;;;;5082319;28;20174;-89
2023/10/13 10:15:06;;;;;;;7.83;3.80;;;22.00;99.90;;;;;;5090618;28;20182;-87
2023/10/13 10:17:43;;;;;;;8.63;3.50;;;22.00;99.90;;;;;;5068115;28;20285;-88
2023/10/13 10:20:19;;;;;;;8.90;3.90;;;22.00;99.90;;;;;;5086374;28;20335;-88
2023/10/13 10:22:59;;;;;;;7.20;3.83;;;22.00;99.90;;;;;;5081714;28;20173;-88
2023/10/13 10:25:34;;;;;;;7.80;3.70;;;22.10;99.90;;;;;;5081764;28;20314;-87
2023/10/13 10:28:05;;;;;;;7.97;3.80;;;22.10;99.90;;;;;;5101734;28;20549;-88
2023/10/13 10:30:42;;;;;;;9.90;3.93;;;22.10;99.90;;;;;;5085187;28;20162;-88
2023/10/13 10:33:12;;;;;;;6.97;3.93;;;22.10;99.90;;;;;;5088438;28;20407;-86
2023/10/13 10:35:43;;;;;;;8.17;3.73;;;22.10;99.90;;;;;;5088904;28;20555;-88
2023/10/13 10:41:00;;;;;;;8.03;3.97;;;22.10;99.90;;;;;;5106300;28;20270;-88
2023/10/13 10:43:29;;;;;;;9.47;3.90;;;22.10;99.90;;;;;;5090833;28;20567;-88
2023/10/13 10:45:59;;;;;;;8.03;3.87;;;22.10;99.90;;;;;;5107636;28;20288;-88
2023/10/13 10:48:31;;;;;;;8.20;4.20;;;22.10;99.90;;;;;;5078911;28;20170;-88
2023/10/13 10:50:58;;;;;;;7.03;4.30;;;22.10;99.90;;;;;;5105386;28;20166;-87
2023/10/13 10:53:43;;;;;;;6.20;4.13;;;22.20;99.90;;;;;;5094684;28;20610;-87
2023/10/13 10:56:20;;;;;;;9.73;4.20;;;22.20;99.90;;;;;;5088643;28;20174;-87
2023/10/13 10:58:54;;;;;;;9.33;4.60;;;22.20;99.90;;;;;;5108172;28;20200;-88
2023/10/13 11:01:24;;;;;;;7.60;4.30;;;22.20;99.90;;;;;;5091969;28;20170;-88
2023/10/13 11:03:57;;;;;;;7.93;4.10;;;22.20;99.90;;;;;;5090271;28;20166;-88
2023/10/13 11:06:24;;;;;;;6.47;4.07;;;22.30;99.90;;;;;;5089893;28;20223;-88
2023/10/13 11:09:00;;;;;;;7.57;4.50;;;22.30;99.90;;;;;;5107351;28;20421;-87
2023/10/13 11:11:35;;;;;;;9.70;4.30;;;22.20;99.90;;;;;;5087117;28;20234;-87
2023/10/13 11:14:22;;;;;;;7.13;4.17;;;22.20;99.90;;;;;;5112020;28;20165;-87
2023/10/13 11:16:55;;;;;;;8.47;4.00;;;22.20;99.90;;;;;;5087521;28;20227;-88
2023/10/13 11:19:41;;;;;;;8.70;4.27;;;22.20;99.90;;;;;;5088929;28;20644;-87
2023/10/13 11:25:22;;;;;;;8.77;4.50;;;22.20;99.90;;;;;;5097779;28;20466;-86
2023/10/13 11:30:20;;;;;;;7.27;4.77;;;22.20;99.90;;;;;;5104221;28;20458;-86
2023/10/13 11:33:09;;;;;;;10.40;4.83;;;22.20;99.90;;;;;;5084466;28;20230;-87
2023/10/13 11:38:26;;;;;;;10.27;4.73;;;22.20;99.90;;;;;;5101752;28;20194;-87
2023/10/13 11:41:08;;;;;;;7.17;4.63;;;22.20;99.90;;;;;;5084083;28;20275;-87
2023/10/13 11:46:16;;;;;;;6.63;4.40;;;22.20;99.90;;;;;;5104260;28;20269;-87
2023/10/13 11:48:43;;;;;;;5.50;4.60;;;22.20;99.90;;;;;;5103266;28;20628;-87
2023/10/13 11:51:32;;;;;;;6.67;4.27;;;22.20;99.90;;;;;;5083846;28;20174;-87
2023/10/13 11:53:58;;;;;;;9.13;4.67;;;22.30;99.90;;;;;;5102882;28;20162;-86
2023/10/13 11:56:24;;;;;;;9.00;5.17;;;22.30;99.90;;;;;;5086533;28;20387;-87
2023/10/13 11:58:51;;;;;;;7.73;4.73;;;22.30;99.90;;;;;;5086043;28;20532;-87
2023/10/13 12:11:41;;;;;;;6.23;4.73;;;22.30;99.90;;;;;;5105094;28;20170;-87
2023/10/13 12:14:17;;;;;;;8.77;4.70;;;22.30;99.90;;;;;;5106378;28;20204;-88
2023/10/13 12:16:53;;;;;;;8.63;4.87;;;22.30;99.90;;;;;;5108217;28;20165;-87
2023/10/13 12:19:23;;;;;;;7.47;4.63;;;22.30;99.90;;;;;;5086035;28;20297;-87
2023/10/13 12:21:56;;;;;;;6.03;4.57;;;22.30;99.90;;;;;;5088122;28;20515;-87
2023/10/13 12:27:18;;;;;;;6.10;4.30;;;22.30;99.90;;;;;;5105496;28;20166;-87
2023/10/13 12:29:47;;;;;;;7.63;4.83;;;22.30;99.90;;;;;;5085587;28;20180;-87
2023/10/13 12:32:14;;;;;;;7.03;4.90;;;22.30;99.90;;;;;;5087066;28;20284;-88
2023/10/13 12:51:20;;;;;;;7.67;4.67;;;22.40;99.90;;;;;;5109652;28;20265;-89
2023/10/13 12:53:52;;;;;;;7.50;4.67;;;22.40;99.90;;;;;;5096187;28;20174;-89
2023/10/13 12:56:25;;;;;;;10.17;5.17;;;22.40;99.90;;;;;;5091347;28;20154;-87
2023/10/13 12:58:52;;;;;;;9.00;5.13;;;22.40;99.90;;;;;;5091242;28;20206;-87
2023/10/13 13:01:22;;;;;;;7.73;5.10;;;22.40;99.90;;;;;;5089358;28;20184;-88
2023/10/13 13:03:55;;;;;;;10.33;4.87;;;22.40;99.90;;;;;;5092240;28;20273;-89
2023/10/13 13:06:25;;;;;;;10.93;5.50;;;22.40;99.90;;;;;;5093240;28;20174;-89
2023/10/13 13:08:59;;;;;;;5.83;4.70;;;22.40;99.90;;;;;;5110446;28;20166;-89
2023/10/13 13:11:25;;;;;;;8.07;5.10;;;22.40;99.90;;;;;;5095228;28;20670;-89
2023/10/13 13:13:51;;;;;;;9.20;5.07;;;22.40;99.90;;;;;;5112178;28;20175;-90
2023/10/13 13:16:20;;;;;;;12.50;5.20;;;22.40;99.90;;;;;;5110808;28;20163;-89
2023/10/13 13:18:46;;;;;;;9.37;5.53;;;22.40;99.90;;;;;;5093427;28;20312;-90
2023/10/13 13:21:19;;;;;;;8.27;5.07;;;22.40;99.90;;;;;;5094114;28;20166;-89
2023/10/13 13:23:46;;;;;;;7.43;4.77;;;22.40;99.90;;;;;;5109830;28;20277;-90
2023/10/13 13:26:17;;;;;;;7.73;4.87;;;22.50;99.90;;;;;;5092224;28;20181;-89
2023/10/13 13:28:43;;;;;;;10.47;5.27;;;22.50;99.90;;;;;;5111005;28;20273;-90
2023/10/13 13:31:12;;;;;;;7.60;4.97;;;22.50;99.90;;;;;;5093222;28;20201;-87
2023/10/13 13:33:42;;;;;;;8.87;5.37;;;22.50;99.90;;;;;;5092628;28;20186;-88
2023/10/13 13:36:13;;;;;;;6.90;4.90;;;22.50;99.90;;;;;;5092773;28;20178;-88
2023/10/13 13:38:40;;;;;;;9.07;5.13;;;22.50;99.90;;;;;;5072786;28;20543;-88
2023/10/13 13:41:16;;;;;;;8.60;5.10;;;22.50;99.90;;;;;;5074394;28;20190;-87
2023/10/13 13:46:24;;;;;;;8.97;5.00;;;22.50;99.90;;;;;;5094797;28;20771;-89
2023/10/13 13:48:51;;;;;;;9.00;4.90;;;22.50;99.90;;;;;;5108707;28;20379;-89
2023/10/13 13:51:26;;;;;;;7.20;5.13;;;22.50;99.90;;;;;;5091606;28;20170;-88
2023/10/13 13:53:53;;;;;;;7.57;4.80;;;22.50;99.90;;;;;;5107814;28;20242;-88
2023/10/13 13:56:19;;;;;;;10.97;5.20;;;22.50;99.90;;;;;;5093557;28;20498;-89
2023/10/13 13:58:46;;;;;;;8.80;5.00;;;22.50;99.90;;;;;;5092900;28;20202;-90
2023/10/13 14:01:12;;;;;;;8.43;5.23;;;22.50;99.90;;;;;;5112607;28;20163;-89
2023/10/13 14:03:45;;;;;;;7.43;4.70;;;22.50;99.90;;;;;;5104569;28;20575;-89
2023/10/13 14:06:18;;;;;;;9.17;4.83;;;22.50;99.90;;;;;;5087564;28;20193;-89
2023/10/13 14:08:59;;;;;;;7.97;4.80;;;22.50;99.90;;;;;;5087831;28;20201;-89
2023/10/13 14:14:28;;;;;;;9.90;4.60;;;22.50;99.90;;;;;;5105883;28;20170;-89
2023/10/13 14:17:07;;;;;;;6.50;4.70;;;22.50;99.90;;;;;;5083609;28;20163;-90
2023/10/13 14:19:34;;;;;;;8.17;4.90;;;22.50;99.90;;;;;;5084706;28;20197;-89
2023/10/13 14:22:06;;;;;;;8.23;4.50;;;22.60;99.90;;;;;;5087060;28;20162;-90
2023/10/13 14:24:34;;;;;;;10.77;4.57;;;22.50;99.90;;;;;;5092892;28;20170;-90
2023/10/13 14:27:08;;;;;;;9.30;5.03;;;22.50;99.90;;;;;;5086023;28;20265;-89
2023/10/13 14:29:39;;;;;;;9.87;4.70;;;22.60;99.90;;;;;;5087564;28;20212;-89
2023/10/13 14:32:12;;;;;;;7.97;4.57;;;22.60;99.90;;;;;;5086456;28;20532;-89
2023/10/13 14:34:41;;;;;;;9.27;4.40;;;22.60;99.90;;;;;;5086755;28;20181;-89
2023/10/13 14:37:08;;;;;;;9.50;5.43;;;22.60;99.90;;;;;;5088334;28;20321;-89
2023/10/13 14:39:35;;;;;;;8.30;4.67;;;22.60;99.90;;;;;;5104080;28;20193;-89
2023/10/13 14:42:07;;;;;;;8.00;4.73;;;22.60;99.90;;;;;;5104711;28;20182;-89
2023/10/13 14:44:33;;;;;;;7.47;4.20;;;22.60;99.90;;;;;;5083758;28;20658;-89
2023/10/13 14:47:00;;;;;;;9.87;4.87;;;22.50;99.90;;;;;;5085055;28;20413;-88
2023/10/13 14:49:26;;;;;;;9.67;4.70;;;22.60;99.90;;;;;;5102593;28;20221;-89
2023/10/13 14:51:54;;;;;;;10.77;4.97;;;22.50;99.90;;;;;;5085068;28;20174;-89
2023/10/13 14:54:32;;;;;;;8.80;4.80;;;22.50;99.90;;;;;;5100252;28;20201;-89
2023/10/13 14:57:02;;;;;;;7.70;4.73;;;22.50;99.90;;;;;;5104092;28;20166;-89
2023/10/13 14:59:32;;;;;;;8.20;4.40;;;22.60;99.90;;;;;;5085490;28;20190;-88
2023/10/13 15:02:01;;;;;;;7.73;4.37;;;22.50;99.90;;;;;;5083632;28;20586;-89
2023/10/13 15:04:28;;;;;;;6.87;4.27;;;22.50;99.90;;;;;;5083522;28;20409;-89
2023/10/13 15:06:55;;;;;;;8.40;4.90;;;22.50;99.90;;;;;;5085290;28;20181;-89
2023/10/13 15:09:23;;;;;;;11.60;4.90;;;22.50;99.90;;;;;;5085767;28;20272;-90
2023/10/13 15:11:53;;;;;;;9.73;5.00;;;22.50;99.90;;;;;;5091094;28;20177;-89
2023/10/13 15:14:20;;;;;;;10.80;4.80;;;22.50;99.90;;;;;;5103391;28;20223;-90
2023/10/13 15:16:46;;;;;;;10.27;4.83;;;22.50;99.90;;;;;;5086939;28;20625;-89
2023/10/13 15:19:12;;;;;;;7.67;4.80;;;22.50;99.90;;;;;;5088752;28;20252;-89
2023/10/13 15:21:40;;;;;;;9.60;4.70;;;22.50;99.90;;;;;;5089741;28;20198;-89
2023/10/13 15:24:13;;;;;;;7.27;4.27;;;22.50;99.90;;;;;;5109559;28;20325;-89
2023/10/13 15:26:48;;;;;;;7.67;4.20;;;22.50;99.90;;;;;;5090951;28;20262;-89
2023/10/13 15:29:18;;;;;;;8.57;4.40;;;22.50;99.90;;;;;;5089464;28;20231;-90
2023/10/13 15:34:26;;;;;;;8.73;4.50;;;22.50;99.90;;;;;;5107008;28;20251;-89
2023/10/13 15:36:54;;;;;;;7.57;4.53;;;22.50;99.90;;;;;;5104539;28;20171;-89
2023/10/13 15:39:24;;;;;;;8.13;4.20;;;22.50;99.90;;;;;;5087322;28;20190;-89
2023/10/13 15:41:53;;;;;;;10.73;4.90;;;22.50;99.90;;;;;;5093634;28;20438;-88
2023/10/13 15:44:24;;;;;;;8.53;4.63;;;22.50;99.90;;;;;;5090020;28;20261;-88
2023/10/13 15:46:55;;;;;;;10.27;4.97;;;22.50;99.90;;;;;;5087681;28;20166;-88
2023/10/13 15:49:21;;;;;;;9.60;4.60;;;22.40;99.90;;;;;;5106588;28;20414;-88
2023/10/13 15:51:46;;;;;;;8.07;4.37;;;22.40;99.90;;;;;;5088121;28;20382;-89
2023/10/13 15:54:15;;;;;;;7.77;4.40;;;22.40;99.90;;;;;;5105854;28;20179;-89
2023/10/13 15:56:46;;;;;;;10.03;4.47;;;22.40;99.90;;;;;;5088346;28;20166;-89
2023/10/13 15:59:12;;;;;;;10.23;4.30;;;22.40;99.90;;;;;;5087228;28;20361;-90
2023/10/13 16:01:39;;;;;;;8.37;4.00;;;22.40;99.90;;;;;;5105953;28;20186;-89
2023/10/13 16:04:11;;;;;;;8.57;3.90;;;22.40;99.90;;;;;;5106563;28;20216;-89
2023/10/13 16:06:39;;;;;;;9.07;4.23;;;22.40;99.90;;;;;;5103372;28;20178;-89
2023/10/13 16:09:13;;;;;;;7.13;4.33;;;22.40;99.90;;;;;;5089903;28;20242;-89
2023/10/13 16:11:40;;;;;;;11.17;4.53;;;22.40;99.90;;;;;;5089391;28;20200;-89
2023/10/13 16:14:10;;;;;;;8.63;3.93;;;22.40;99.90;;;;;;5089966;28;20269;-89
2023/10/13 16:16:36;;;;;;;8.03;4.17;;;22.40;99.90;;;;;;5104522;28;20170;-90
2023/10/13 16:19:06;;;;;;;8.73;4.43;;;22.40;99.90;;;;;;5087691;28;20575;-89
2023/10/13 16:21:39;;;;;;;8.67;4.57;;;22.40;99.90;;;;;;5105140;28;20194;-89
2023/10/13 16:24:10;;;;;;;9.30;4.20;;;22.40;99.90;;;;;;5101302;28;20253;-90
2023/10/13 16:26:37;;;;;;;8.90;4.20;;;22.40;99.90;;;;;;5087366;28;20162;-89
2023/10/13 16:29:03;;;;;;;9.10;4.30;;;22.40;99.90;;;;;;5106651;28;20315;-90
2023/10/13 16:31:29;;;;;;;7.47;4.23;;;22.40;99.90;;;;;;5107507;28;20378;-90
2023/10/13 16:33:58;;;;;;;8.50;3.93;;;22.40;99.90;;;;;;5090707;28;20186;-90
2023/10/13 16:36:25;;;;;;;11.70;4.90;;;22.40;99.90;;;;;;5106723;28;20682;-90
2023/10/13 16:38:51;;;;;;;6.80;4.13;;;22.30;99.90;;;;;;5088559;28;20193;-89
2023/10/13 16:41:16;;;;;;;8.03;3.90;;;22.30;99.90;;;;;;5089314;28;20186;-90
2023/10/13 16:43:44;;;;;;;6.07;3.83;;;22.30;99.90;;;;;;5087357;28;20373;-90
2023/10/13 16:46:13;;;;;;;6.83;3.93;;;22.30;99.90;;;;;;5084731;28;20638;-89
2023/10/13 16:48:39;;;;;;;8.83;4.43;;;22.30;99.90;;;;;;5105146;28;20166;-90
2023/10/13 16:51:05;;;;;;;8.53;4.27;;;22.30;99.90;;;;;;5092517;28;20589;-89
2023/10/13 16:53:34;;;;;;;11.63;4.57;;;22.30;99.90;;;;;;5088573;28;20308;-90
2023/10/13 16:56:02;;;;;;;13.47;4.40;;;22.30;99.90;;;;;;5093613;28;20166;-90
2023/10/13 16:58:30;;;;;;;8.23;4.43;;;22.30;99.90;;;;;;5104233;28;20437;-90
2023/10/13 17:00:56;;;;;;;7.50;4.20;;;22.30;99.90;;;;;;5098132;28;20644;-90
2023/10/13 17:03:30;;;;;;;7.93;4.33;;;22.30;99.90;;;;;;5085494;28;20288;-89
2023/10/13 17:06:01;;;;;;;10.23;4.23;;;22.30;99.90;;;;;;5081847;28;20409;-90
2023/10/13 17:08:31;;;;;;;10.13;4.53;;;22.30;99.90;;;;;;5089347;28;20166;-89
2023/10/13 17:11:13;;;;;;;9.07;4.60;;;22.30;99.90;;;;;;5090250;28;20196;-90
2023/10/13 17:13:39;;;;;;;7.10;4.10;;;22.30;99.90;;;;;;5092332;28;20451;-90
2023/10/13 17:16:21;;;;;;;6.80;4.37;;;22.30;99.90;;;;;;5109417;28;20185;-90
2023/10/13 17:18:51;;;;;;;8.13;3.57;;;22.20;99.90;;;;;;5108031;28;20190;-90
2023/10/13 17:21:18;;;;;;;9.10;3.97;;;22.20;99.90;;;;;;5090225;28;20181;-90
2023/10/13 17:23:50;;;;;;;7.97;4.27;;;22.20;99.90;;;;;;5107296;28;20270;-90